sensor_id;sensor_type;location;lat;lon;timestamp;temperature;humidity
6672;DHT22;3372;48.690;12.362;2023-06-10T00:00:44;18.40;24.90
6672;DHT22;3372;48.690;12.362;2023-06-10T00:03:10;18.40;25.40
6672;DHT22;3372;48.690;12.362;2023-06-10T00:05:36;18.30;25.20
6672;DHT22;3372;48.690;12.362;2023-06-10T00:08:04;18.30;25.10
6672;DHT22;3372;48.690;12.362;2023-06-10T00:10:33;18.30;25.20
6672;DHT22;3372;48.690;12.362;2023-06-10T00:13:00;18.20;26.30
6672;DHT22;3372;48.690;12.362;2023-06-10T00:15:26;18.20;26.60
6672;DHT22;3372;48.690;12.362;2023-06-10T00:17:52;18.20;25.70
6672;DHT22;3372;48.690;12.362;2023-06-10T00:20:18;18.10;25.80
6672;DHT22;3372;48.690;12.362;2023-06-10T00:22:44;18.10;26.00
6672;DHT22;3372;48.690;12.362;2023-06-10T00:25:11;18.00;26.30
6672;DHT22;3372;48.690;12.362;2023-06-10T00:27:36;18.00;26.70
6672;DHT22;3372;48.690;12.362;2023-06-10T00:30:03;18.00;27.30
6672;DHT22;3372;48.690;12.362;2023-06-10T00:32:30;17.90;26.90
6672;DHT22;3372;48.690;12.362;2023-06-10T00:34:56;17.90;26.40
6672;DHT22;3372;48.690;12.362;2023-06-10T00:37:22;17.80;27.20
6672;DHT22;3372;48.690;12.362;2023-06-10T00:39:47;17.80;26.50
6672;DHT22;3372;48.690;12.362;2023-06-10T00:42:13;17.90;26.20
6672;DHT22;3372;48.690;12.362;2023-06-10T00:44:38;17.80;26.80
6672;DHT22;3372;48.690;12.362;2023-06-10T00:47:05;17.70;27.20
6672;DHT22;3372;48.690;12.362;2023-06-10T00:49:31;17.70;27.10
6672;DHT22;3372;48.690;12.362;2023-06-10T00:51:57;17.70;26.80
6672;DHT22;3372;48.690;12.362;2023-06-10T00:54:23;17.70;26.60
6672;DHT22;3372;48.690;12.362;2023-06-10T00:56:49;17.70;26.80
6672;DHT22;3372;48.690;12.362;2023-06-10T00:59:15;17.70;26.50
6672;DHT22;3372;48.690;12.362;2023-06-10T01:01:41;17.60;26.70
6672;DHT22;3372;48.690;12.362;2023-06-10T01:04:08;17.50;26.60
6672;DHT22;3372;48.690;12.362;2023-06-10T01:06:57;17.40;27.00
6672;DHT22;3372;48.690;12.362;2023-06-10T01:09:45;17.20;28.80
6672;DHT22;3372;48.690;12.362;2023-06-10T01:12:21;17.30;28.20
6672;DHT22;3372;48.690;12.362;2023-06-10T01:14:52;17.30;28.10
6672;DHT22;3372;48.690;12.362;2023-06-10T01:17:18;17.20;27.50
6672;DHT22;3372;48.690;12.362;2023-06-10T01:19:44;17.30;28.10
6672;DHT22;3372;48.690;12.362;2023-06-10T01:22:10;17.20;28.40
6672;DHT22;3372;48.690;12.362;2023-06-10T01:24:36;17.10;27.70
6672;DHT22;3372;48.690;12.362;2023-06-10T01:27:08;17.20;28.80
6672;DHT22;3372;48.690;12.362;2023-06-10T01:29:45;17.20;28.20
6672;DHT22;3372;48.690;12.362;2023-06-10T01:32:17;17.20;29.80
6672;DHT22;3372;48.690;12.362;2023-06-10T01:34:44;17.10;28.10
6672;DHT22;3372;48.690;12.362;2023-06-10T01:37:12;17.10;28.80
6672;DHT22;3372;48.690;12.362;2023-06-10T01:39:39;17.00;27.90
6672;DHT22;3372;48.690;12.362;2023-06-10T01:42:06;17.00;27.90
6672;DHT22;3372;48.690;12.362;2023-06-10T01:44:32;16.90;28.30
6672;DHT22;3372;48.690;12.362;2023-06-10T01:46:57;17.00;28.80
6672;DHT22;3372;48.690;12.362;2023-06-10T01:49:23;16.90;28.90
6672;DHT22;3372;48.690;12.362;2023-06-10T01:51:49;17.00;28.60
6672;DHT22;3372;48.690;12.362;2023-06-10T01:54:15;17.00;28.50
6672;DHT22;3372;48.690;12.362;2023-06-10T01:56:41;16.90;28.40
6672;DHT22;3372;48.690;12.362;2023-06-10T01:59:06;16.90;28.30
6672;DHT22;3372;48.690;12.362;2023-06-10T02:01:32;16.80;28.80
6672;DHT22;3372;48.690;12.362;2023-06-10T02:03:57;16.80;28.60
6672;DHT22;3372;48.690;12.362;2023-06-10T02:06:23;16.90;28.60
6672;DHT22;3372;48.690;12.362;2023-06-10T02:08:49;16.70;28.70
6672;DHT22;3372;48.690;12.362;2023-06-10T02:11:14;16.80;28.50
6672;DHT22;3372;48.690;12.362;2023-06-10T02:13:40;16.80;28.80
6672;DHT22;3372;48.690;12.362;2023-06-10T02:16:05;16.70;29.00
6672;DHT22;3372;48.690;12.362;2023-06-10T02:18:32;16.60;29.50
6672;DHT22;3372;48.690;12.362;2023-06-10T02:20:59;16.70;28.60
6672;DHT22;3372;48.690;12.362;2023-06-10T02:23:24;16.60;29.20
6672;DHT22;3372;48.690;12.362;2023-06-10T02:25:50;16.60;29.80
6672;DHT22;3372;48.690;12.362;2023-06-10T02:28:16;16.50;30.00
6672;DHT22;3372;48.690;12.362;2023-06-10T02:30:42;16.60;29.80
6672;DHT22;3372;48.690;12.362;2023-06-10T02:33:08;16.50;29.50
6672;DHT22;3372;48.690;12.362;2023-06-10T02:35:38;16.50;30.80
6672;DHT22;3372;48.690;12.362;2023-06-10T02:38:03;16.30;30.00
6672;DHT22;3372;48.690;12.362;2023-06-10T02:40:29;16.30;30.50
6672;DHT22;3372;48.690;12.362;2023-06-10T02:42:55;16.40;30.30
6672;DHT22;3372;48.690;12.362;2023-06-10T02:45:20;16.40;31.40
6672;DHT22;3372;48.690;12.362;2023-06-10T02:47:46;16.30;29.60
6672;DHT22;3372;48.690;12.362;2023-06-10T02:50:11;16.30;30.00
6672;DHT22;3372;48.690;12.362;2023-06-10T02:52:37;16.30;32.00
6672;DHT22;3372;48.690;12.362;2023-06-10T02:55:03;16.30;30.00
6672;DHT22;3372;48.690;12.362;2023-06-10T02:57:28;16.30;30.70
6672;DHT22;3372;48.690;12.362;2023-06-10T02:59:54;16.10;30.60
6672;DHT22;3372;48.690;12.362;2023-06-10T03:02:20;16.10;31.10
6672;DHT22;3372;48.690;12.362;2023-06-10T03:04:45;16.20;30.90
6672;DHT22;3372;48.690;12.362;2023-06-10T03:07:11;16.20;32.30
6672;DHT22;3372;48.690;12.362;2023-06-10T03:09:37;16.10;31.60
6672;DHT22;3372;48.690;12.362;2023-06-10T03:12:02;16.10;31.10
6672;DHT22;3372;48.690;12.362;2023-06-10T03:14:28;16.10;31.80
6672;DHT22;3372;48.690;12.362;2023-06-10T03:16:54;16.10;30.90
6672;DHT22;3372;48.690;12.362;2023-06-10T03:19:19;16.10;32.30
6672;DHT22;3372;48.690;12.362;2023-06-10T03:21:49;16.00;32.20
6672;DHT22;3372;48.690;12.362;2023-06-10T03:24:20;16.00;32.20
6672;DHT22;3372;48.690;12.362;2023-06-10T03:26:45;15.90;32.10
6672;DHT22;3372;48.690;12.362;2023-06-10T03:29:11;16.00;32.90
6672;DHT22;3372;48.690;12.362;2023-06-10T03:31:37;16.00;32.20
6672;DHT22;3372;48.690;12.362;2023-06-10T03:34:04;16.00;32.20
6672;DHT22;3372;48.690;12.362;2023-06-10T03:36:29;15.90;32.60
6672;DHT22;3372;48.690;12.362;2023-06-10T03:38:55;15.90;34.00
6672;DHT22;3372;48.690;12.362;2023-06-10T03:41:22;15.90;32.10
6672;DHT22;3372;48.690;12.362;2023-06-10T03:43:48;15.90;33.90
6672;DHT22;3372;48.690;12.362;2023-06-10T03:46:14;15.90;32.90
6672;DHT22;3372;48.690;12.362;2023-06-10T03:48:40;16.00;32.20
6672;DHT22;3372;48.690;12.362;2023-06-10T03:51:05;16.00;32.70
6672;DHT22;3372;48.690;12.362;2023-06-10T03:53:31;16.00;34.20
6672;DHT22;3372;48.690;12.362;2023-06-10T03:55:57;16.00;34.80
6672;DHT22;3372;48.690;12.362;2023-06-10T03:58:23;16.00;34.70
6672;DHT22;3372;48.690;12.362;2023-06-10T04:00:49;16.00;34.80
6672;DHT22;3372;48.690;12.362;2023-06-10T04:03:15;16.10;35.00
6672;DHT22;3372;48.690;12.362;2023-06-10T04:05:41;16.10;33.80
6672;DHT22;3372;48.690;12.362;2023-06-10T04:08:08;16.10;34.50
6672;DHT22;3372;48.690;12.362;2023-06-10T04:10:33;16.10;36.20
6672;DHT22;3372;48.690;12.362;2023-06-10T04:12:59;16.20;35.70
6672;DHT22;3372;48.690;12.362;2023-06-10T04:15:25;16.20;36.30
6672;DHT22;3372;48.690;12.362;2023-06-10T04:17:50;16.30;38.30
6672;DHT22;3372;48.690;12.362;2023-06-10T04:20:16;16.30;37.00
6672;DHT22;3372;48.690;12.362;2023-06-10T04:22:42;16.40;37.10
6672;DHT22;3372;48.690;12.362;2023-06-10T04:25:09;16.40;37.30
6672;DHT22;3372;48.690;12.362;2023-06-10T04:27:35;16.50;36.90
6672;DHT22;3372;48.690;12.362;2023-06-10T04:30:01;16.50;38.60
6672;DHT22;3372;48.690;12.362;2023-06-10T04:32:26;16.50;39.10
6672;DHT22;3372;48.690;12.362;2023-06-10T04:34:52;16.60;38.60
6672;DHT22;3372;48.690;12.362;2023-06-10T04:37:18;16.60;40.20
6672;DHT22;3372;48.690;12.362;2023-06-10T04:39:43;16.70;40.00
6672;DHT22;3372;48.690;12.362;2023-06-10T04:42:09;16.80;40.80
6672;DHT22;3372;48.690;12.362;2023-06-10T04:44:34;16.80;41.70
6672;DHT22;3372;48.690;12.362;2023-06-10T04:47:00;16.80;44.20
6672;DHT22;3372;48.690;12.362;2023-06-10T04:49:26;16.80;43.30
6672;DHT22;3372;48.690;12.362;2023-06-10T04:51:51;16.90;41.70
6672;DHT22;3372;48.690;12.362;2023-06-10T04:54:17;17.10;42.30
6672;DHT22;3372;48.690;12.362;2023-06-10T04:56:42;17.10;42.30
6672;DHT22;3372;48.690;12.362;2023-06-10T04:59:08;17.20;42.60
6672;DHT22;3372;48.690;12.362;2023-06-10T05:01:33;17.60;43.00
6672;DHT22;3372;48.690;12.362;2023-06-10T05:03:59;18.40;42.30
6672;DHT22;3372;48.690;12.362;2023-06-10T05:06:24;19.20;40.40
6672;DHT22;3372;48.690;12.362;2023-06-10T05:08:50;19.70;37.60
6672;DHT22;3372;48.690;12.362;2023-06-10T05:11:15;20.10;37.30
6672;DHT22;3372;48.690;12.362;2023-06-10T05:13:42;20.60;36.70
6672;DHT22;3372;48.690;12.362;2023-06-10T05:16:08;20.90;34.00
6672;DHT22;3372;48.690;12.362;2023-06-10T05:18:34;21.20;34.20
6672;DHT22;3372;48.690;12.362;2023-06-10T05:21:01;21.60;34.00
6672;DHT22;3372;48.690;12.362;2023-06-10T05:23:27;22.00;32.60
6672;DHT22;3372;48.690;12.362;2023-06-10T05:25:53;22.10;31.80
6672;DHT22;3372;48.690;12.362;2023-06-10T05:28:19;22.40;31.50
6672;DHT22;3372;48.690;12.362;2023-06-10T05:30:45;22.20;31.60
6672;DHT22;3372;48.690;12.362;2023-06-10T05:33:10;22.10;31.10
6672;DHT22;3372;48.690;12.362;2023-06-10T05:35:36;22.40;30.40
6672;DHT22;3372;48.690;12.362;2023-06-10T05:38:02;22.50;31.60
6672;DHT22;3372;48.690;12.362;2023-06-10T05:40:28;22.70;30.90
6672;DHT22;3372;48.690;12.362;2023-06-10T05:42:53;23.20;29.00
6672;DHT22;3372;48.690;12.362;2023-06-10T05:45:19;23.30;28.60
6672;DHT22;3372;48.690;12.362;2023-06-10T05:47:44;23.70;27.30
6672;DHT22;3372;48.690;12.362;2023-06-10T05:50:10;23.70;26.90
6672;DHT22;3372;48.690;12.362;2023-06-10T05:52:36;23.80;26.60
6672;DHT22;3372;48.690;12.362;2023-06-10T05:55:05;24.20;27.10
6672;DHT22;3372;48.690;12.362;2023-06-10T05:57:31;24.30;25.00
6672;DHT22;3372;48.690;12.362;2023-06-10T05:59:57;24.60;24.70
6672;DHT22;3372;48.690;12.362;2023-06-10T06:02:23;24.90;24.00
6672;DHT22;3372;48.690;12.362;2023-06-10T06:04:49;24.90;24.20
6672;DHT22;3372;48.690;12.362;2023-06-10T06:07:14;25.30;23.70
6672;DHT22;3372;48.690;12.362;2023-06-10T06:09:40;25.40;22.00
6672;DHT22;3372;48.690;12.362;2023-06-10T06:12:06;25.00;21.20
6672;DHT22;3372;48.690;12.362;2023-06-10T06:14:36;25.00;23.00
6672;DHT22;3372;48.690;12.362;2023-06-10T06:17:02;25.20;22.00
6672;DHT22;3372;48.690;12.362;2023-06-10T06:19:28;25.50;20.90
6672;DHT22;3372;48.690;12.362;2023-06-10T06:21:53;25.50;21.90
6672;DHT22;3372;48.690;12.362;2023-06-10T06:24:19;25.90;22.20
6672;DHT22;3372;48.690;12.362;2023-06-10T06:26:44;26.20;20.20
6672;DHT22;3372;48.690;12.362;2023-06-10T06:29:10;25.90;19.10
6672;DHT22;3372;48.690;12.362;2023-06-10T06:31:36;25.70;19.10
6672;DHT22;3372;48.690;12.362;2023-06-10T06:34:02;26.20;19.90
6672;DHT22;3372;48.690;12.362;2023-06-10T06:36:27;26.30;19.10
6672;DHT22;3372;48.690;12.362;2023-06-10T06:38:53;25.60;19.60
6672;DHT22;3372;48.690;12.362;2023-06-10T06:41:18;25.40;21.00
6672;DHT22;3372;48.690;12.362;2023-06-10T06:43:44;25.80;20.40
6672;DHT22;3372;48.690;12.362;2023-06-10T06:46:10;26.20;20.70
6672;DHT22;3372;48.690;12.362;2023-06-10T06:48:36;26.40;19.00
6672;DHT22;3372;48.690;12.362;2023-06-10T06:51:01;25.50;19.50
6672;DHT22;3372;48.690;12.362;2023-06-10T06:53:27;25.00;20.70
6672;DHT22;3372;48.690;12.362;2023-06-10T06:55:52;24.60;21.90
6672;DHT22;3372;48.690;12.362;2023-06-10T06:58:18;24.30;21.30
6672;DHT22;3372;48.690;12.362;2023-06-10T07:00:44;24.20;22.10
6672;DHT22;3372;48.690;12.362;2023-06-10T07:03:10;24.20;22.60
6672;DHT22;3372;48.690;12.362;2023-06-10T07:05:35;24.70;23.20
6672;DHT22;3372;48.690;12.362;2023-06-10T07:08:01;25.40;23.00
6672;DHT22;3372;48.690;12.362;2023-06-10T07:10:27;25.60;20.60
6672;DHT22;3372;48.690;12.362;2023-06-10T07:12:53;26.10;18.90
6672;DHT22;3372;48.690;12.362;2023-06-10T07:15:19;26.20;19.20
6672;DHT22;3372;48.690;12.362;2023-06-10T07:17:44;26.60;19.50
6672;DHT22;3372;48.690;12.362;2023-06-10T07:20:10;26.80;18.20
6672;DHT22;3372;48.690;12.362;2023-06-10T07:22:36;27.00;17.00
6672;DHT22;3372;48.690;12.362;2023-06-10T07:25:04;26.80;18.90
6672;DHT22;3372;48.690;12.362;2023-06-10T07:27:30;26.70;16.70
6672;DHT22;3372;48.690;12.362;2023-06-10T07:29:56;27.00;17.90
6672;DHT22;3372;48.690;12.362;2023-06-10T07:32:21;27.10;14.40
6672;DHT22;3372;48.690;12.362;2023-06-10T07:34:49;27.00;13.50
6672;DHT22;3372;48.690;12.362;2023-06-10T07:37:14;26.90;15.40
6672;DHT22;3372;48.690;12.362;2023-06-10T07:39:40;26.80;15.60
6672;DHT22;3372;48.690;12.362;2023-06-10T07:42:06;26.90;16.10
6672;DHT22;3372;48.690;12.362;2023-06-10T07:44:32;26.70;15.20
6672;DHT22;3372;48.690;12.362;2023-06-10T07:46:58;26.70;15.20
6672;DHT22;3372;48.690;12.362;2023-06-10T07:49:23;26.50;15.80
6672;DHT22;3372;48.690;12.362;2023-06-10T07:51:50;26.60;16.60
6672;DHT22;3372;48.690;12.362;2023-06-10T07:54:16;26.00;16.20
6672;DHT22;3372;48.690;12.362;2023-06-10T07:56:41;26.40;16.00
6672;DHT22;3372;48.690;12.362;2023-06-10T07:59:07;26.40;14.80
6672;DHT22;3372;48.690;12.362;2023-06-10T08:01:32;26.20;15.90
6672;DHT22;3372;48.690;12.362;2023-06-10T08:03:58;26.30;17.20
6672;DHT22;3372;48.690;12.362;2023-06-10T08:06:24;26.70;15.30
6672;DHT22;3372;48.690;12.362;2023-06-10T08:08:49;26.80;14.10
6672;DHT22;3372;48.690;12.362;2023-06-10T08:11:15;26.50;15.40
6672;DHT22;3372;48.690;12.362;2023-06-10T08:13:40;25.50;16.00
6672;DHT22;3372;48.690;12.362;2023-06-10T08:16:06;25.30;17.30
6672;DHT22;3372;48.690;12.362;2023-06-10T08:18:32;24.90;18.00
6672;DHT22;3372;48.690;12.362;2023-06-10T08:20:58;24.80;17.80
6672;DHT22;3372;48.690;12.362;2023-06-10T08:23:24;24.80;18.10
6672;DHT22;3372;48.690;12.362;2023-06-10T08:25:49;25.30;19.40
6672;DHT22;3372;48.690;12.362;2023-06-10T08:28:16;25.80;18.50
6672;DHT22;3372;48.690;12.362;2023-06-10T08:30:42;25.60;16.50
6672;DHT22;3372;48.690;12.362;2023-06-10T08:33:07;25.40;17.30
6672;DHT22;3372;48.690;12.362;2023-06-10T08:35:33;25.00;17.20
6672;DHT22;3372;48.690;12.362;2023-06-10T08:37:58;24.90;18.00
6672;DHT22;3372;48.690;12.362;2023-06-10T08:40:24;25.00;17.60
6672;DHT22;3372;48.690;12.362;2023-06-10T08:43:05;25.00;18.10
6672;DHT22;3372;48.690;12.362;2023-06-10T08:45:32;24.90;17.90
6672;DHT22;3372;48.690;12.362;2023-06-10T08:48:05;24.80;18.60
6672;DHT22;3372;48.690;12.362;2023-06-10T08:50:37;24.80;19.00
6672;DHT22;3372;48.690;12.362;2023-06-10T08:53:07;24.90;18.90
6672;DHT22;3372;48.690;12.362;2023-06-10T08:55:36;25.00;17.70
6672;DHT22;3372;48.690;12.362;2023-06-10T08:58:02;25.10;18.30
6672;DHT22;3372;48.690;12.362;2023-06-10T09:00:29;25.20;17.90
6672;DHT22;3372;48.690;12.362;2023-06-10T09:02:56;25.20;19.20
6672;DHT22;3372;48.690;12.362;2023-06-10T09:05:22;25.20;18.10
6672;DHT22;3372;48.690;12.362;2023-06-10T09:07:48;25.30;18.20
6672;DHT22;3372;48.690;12.362;2023-06-10T09:10:14;25.00;18.20
6672;DHT22;3372;48.690;12.362;2023-06-10T09:12:40;25.00;17.90
6672;DHT22;3372;48.690;12.362;2023-06-10T09:15:06;24.90;19.20
6672;DHT22;3372;48.690;12.362;2023-06-10T09:17:32;25.00;18.00
6672;DHT22;3372;48.690;12.362;2023-06-10T09:20:00;25.30;17.50
6672;DHT22;3372;48.690;12.362;2023-06-10T09:22:28;25.40;18.70
6672;DHT22;3372;48.690;12.362;2023-06-10T09:25:08;25.80;17.00
6672;DHT22;3372;48.690;12.362;2023-06-10T09:27:47;25.50;17.50
6672;DHT22;3372;48.690;12.362;2023-06-10T09:30:34;25.20;16.10
6672;DHT22;3372;48.690;12.362;2023-06-10T09:33:12;25.00;17.90
6672;DHT22;3372;48.690;12.362;2023-06-10T09:35:45;24.80;17.90
6672;DHT22;3372;48.690;12.362;2023-06-10T09:38:13;24.80;18.70
6672;DHT22;3372;48.690;12.362;2023-06-10T09:40:54;24.60;19.00
6672;DHT22;3372;48.690;12.362;2023-06-10T09:43:20;25.00;18.20
6672;DHT22;3372;48.690;12.362;2023-06-10T09:45:50;25.30;16.80
6672;DHT22;3372;48.690;12.362;2023-06-10T09:48:18;25.40;17.90
6672;DHT22;3372;48.690;12.362;2023-06-10T09:50:44;25.60;17.80
6672;DHT22;3372;48.690;12.362;2023-06-10T09:53:11;25.60;16.70
6672;DHT22;3372;48.690;12.362;2023-06-10T09:55:41;25.60;17.10
6672;DHT22;3372;48.690;12.362;2023-06-10T09:58:07;25.90;16.60
6672;DHT22;3372;48.690;12.362;2023-06-10T10:00:33;25.90;15.80
6672;DHT22;3372;48.690;12.362;2023-06-10T10:03:00;26.10;16.90
6672;DHT22;3372;48.690;12.362;2023-06-10T10:05:27;26.10;16.60
6672;DHT22;3372;48.690;12.362;2023-06-10T10:07:53;25.60;14.60
6672;DHT22;3372;48.690;12.362;2023-06-10T10:10:20;25.30;15.50
6672;DHT22;3372;48.690;12.362;2023-06-10T10:12:47;25.00;16.20
6672;DHT22;3372;48.690;12.362;2023-06-10T10:15:12;25.10;17.10
6672;DHT22;3372;48.690;12.362;2023-06-10T10:20:20;25.10;18.00
6672;DHT22;3372;48.690;12.362;2023-06-10T10:22:47;24.90;17.30
6672;DHT22;3372;48.690;12.362;2023-06-10T10:25:17;24.80;17.30
6672;DHT22;3372;48.690;12.362;2023-06-10T10:28:02;24.80;17.40
6672;DHT22;3372;48.690;12.362;2023-06-10T10:30:40;24.80;18.00
6672;DHT22;3372;48.690;12.362;2023-06-10T10:33:10;24.80;19.00
6672;DHT22;3372;48.690;12.362;2023-06-10T10:35:38;24.50;17.10
6672;DHT22;3372;48.690;12.362;2023-06-10T10:38:05;24.60;17.90
6672;DHT22;3372;48.690;12.362;2023-06-10T10:40:32;24.80;18.30
6672;DHT22;3372;48.690;12.362;2023-06-10T10:42:59;25.10;16.60
6672;DHT22;3372;48.690;12.362;2023-06-10T10:45:27;25.50;16.50
6672;DHT22;3372;48.690;12.362;2023-06-10T10:47:53;25.60;17.10
6672;DHT22;3372;48.690;12.362;2023-06-10T10:50:22;25.70;16.90
6672;DHT22;3372;48.690;12.362;2023-06-10T10:53:04;25.80;15.70
6672;DHT22;3372;48.690;12.362;2023-06-10T10:55:31;25.60;15.20
6672;DHT22;3372;48.690;12.362;2023-06-10T10:58:06;25.70;15.30
6672;DHT22;3372;48.690;12.362;2023-06-10T11:00:37;25.90;16.70
6672;DHT22;3372;48.690;12.362;2023-06-10T11:08:03;25.60;16.30
6672;DHT22;3372;48.690;12.362;2023-06-10T11:10:33;25.50;16.50
6672;DHT22;3372;48.690;12.362;2023-06-10T11:13:00;25.80;17.00
6672;DHT22;3372;48.690;12.362;2023-06-10T11:15:28;25.80;16.80
6672;DHT22;3372;48.690;12.362;2023-06-10T11:18:23;25.50;13.50
6672;DHT22;3372;48.690;12.362;2023-06-10T11:28:41;25.50;14.60
6672;DHT22;3372;48.690;12.362;2023-06-10T11:31:08;25.50;14.50
6672;DHT22;3372;48.690;12.362;2023-06-10T11:33:38;25.50;13.80
6672;DHT22;3372;48.690;12.362;2023-06-10T11:36:07;25.70;15.10
6672;DHT22;3372;48.690;12.362;2023-06-10T11:38:33;25.70;13.90
6672;DHT22;3372;48.690;12.362;2023-06-10T11:40:59;25.80;14.70
6672;DHT22;3372;48.690;12.362;2023-06-10T11:43:26;25.70;13.70
6672;DHT22;3372;48.690;12.362;2023-06-10T11:45:54;26.00;14.00
6672;DHT22;3372;48.690;12.362;2023-06-10T11:48:21;26.10;12.60
6672;DHT22;3372;48.690;12.362;2023-06-10T11:50:46;26.10;11.50
6672;DHT22;3372;48.690;12.362;2023-06-10T11:53:12;26.20;11.90
6672;DHT22;3372;48.690;12.362;2023-06-10T11:55:45;26.10;11.50
6672;DHT22;3372;48.690;12.362;2023-06-10T11:58:21;26.10;11.10
6672;DHT22;3372;48.690;12.362;2023-06-10T12:00:51;26.00;10.70
6672;DHT22;3372;48.690;12.362;2023-06-10T12:03:19;26.10;10.40
6672;DHT22;3372;48.690;12.362;2023-06-10T12:05:59;26.20;11.10
6672;DHT22;3372;48.690;12.362;2023-06-10T12:08:26;26.10;9.80
6672;DHT22;3372;48.690;12.362;2023-06-10T12:10:51;26.00;10.40
6672;DHT22;3372;48.690;12.362;2023-06-10T12:13:17;25.90;11.50
6672;DHT22;3372;48.690;12.362;2023-06-10T12:15:46;26.00;12.10
6672;DHT22;3372;48.690;12.362;2023-06-10T12:18:22;26.20;13.00
6672;DHT22;3372;48.690;12.362;2023-06-10T12:20:49;26.30;12.30
6672;DHT22;3372;48.690;12.362;2023-06-10T12:23:17;26.20;11.60
6672;DHT22;3372;48.690;12.362;2023-06-10T12:25:53;26.20;12.90
6672;DHT22;3372;48.690;12.362;2023-06-10T12:28:26;26.20;12.30
6672;DHT22;3372;48.690;12.362;2023-06-10T12:31:06;26.40;13.00
6672;DHT22;3372;48.690;12.362;2023-06-10T12:33:33;26.50;10.80
6672;DHT22;3372;48.690;12.362;2023-06-10T12:35:58;26.50;10.80
6672;DHT22;3372;48.690;12.362;2023-06-10T12:38:25;26.70;11.60
6672;DHT22;3372;48.690;12.362;2023-06-10T12:40:54;26.50;11.00
6672;DHT22;3372;48.690;12.362;2023-06-10T12:43:22;26.50;11.60
6672;DHT22;3372;48.690;12.362;2023-06-10T12:45:50;26.30;11.40
6672;DHT22;3372;48.690;12.362;2023-06-10T12:48:23;26.40;11.30
6672;DHT22;3372;48.690;12.362;2023-06-10T12:50:56;26.50;11.00
6672;DHT22;3372;48.690;12.362;2023-06-10T12:53:22;26.30;12.00
6672;DHT22;3372;48.690;12.362;2023-06-10T12:55:49;26.40;11.90
6672;DHT22;3372;48.690;12.362;2023-06-10T12:58:15;26.50;11.10
6672;DHT22;3372;48.690;12.362;2023-06-10T13:00:41;26.80;12.00
6672;DHT22;3372;48.690;12.362;2023-06-10T13:03:08;26.80;9.60
6672;DHT22;3372;48.690;12.362;2023-06-10T13:05:35;26.60;11.20
6672;DHT22;3372;48.690;12.362;2023-06-10T13:08:02;26.50;10.10
6672;DHT22;3372;48.690;12.362;2023-06-10T13:10:28;26.50;11.00
6672;DHT22;3372;48.690;12.362;2023-06-10T13:12:54;26.40;12.00
6672;DHT22;3372;48.690;12.362;2023-06-10T13:15:20;26.40;12.20
6672;DHT22;3372;48.690;12.362;2023-06-10T13:17:46;26.10;13.10
6672;DHT22;3372;48.690;12.362;2023-06-10T13:20:14;25.90;15.00
6672;DHT22;3372;48.690;12.362;2023-06-10T13:22:41;25.50;16.90
6672;DHT22;3372;48.690;12.362;2023-06-10T13:25:07;25.60;16.30
6672;DHT22;3372;48.690;12.362;2023-06-10T13:27:34;25.40;16.60
6672;DHT22;3372;48.690;12.362;2023-06-10T13:30:00;25.40;17.20
6672;DHT22;3372;48.690;12.362;2023-06-10T13:32:25;25.40;17.10
6672;DHT22;3372;48.690;12.362;2023-06-10T13:34:51;25.50;17.30
6672;DHT22;3372;48.690;12.362;2023-06-10T13:37:18;25.50;16.90
6672;DHT22;3372;48.690;12.362;2023-06-10T13:39:44;25.70;17.30
6672;DHT22;3372;48.690;12.362;2023-06-10T13:42:12;25.60;17.00
6672;DHT22;3372;48.690;12.362;2023-06-10T13:44:38;25.50;16.30
6672;DHT22;3372;48.690;12.362;2023-06-10T13:47:03;25.70;15.90
6672;DHT22;3372;48.690;12.362;2023-06-10T13:49:29;26.00;14.90
6672;DHT22;3372;48.690;12.362;2023-06-10T13:51:56;26.20;14.40
6672;DHT22;3372;48.690;12.362;2023-06-10T13:54:22;26.40;14.30
6672;DHT22;3372;48.690;12.362;2023-06-10T13:56:47;26.30;12.90
6672;DHT22;3372;48.690;12.362;2023-06-10T13:59:13;26.40;14.00
6672;DHT22;3372;48.690;12.362;2023-06-10T14:01:38;26.40;13.60
6672;DHT22;3372;48.690;12.362;2023-06-10T14:04:06;26.20;14.50
6672;DHT22;3372;48.690;12.362;2023-06-10T14:06:32;26.10;14.80
6672;DHT22;3372;48.690;12.362;2023-06-10T14:09:01;25.80;14.30
6672;DHT22;3372;48.690;12.362;2023-06-10T14:11:27;25.80;15.00
6672;DHT22;3372;48.690;12.362;2023-06-10T14:13:52;25.70;16.20
6672;DHT22;3372;48.690;12.362;2023-06-10T14:16:18;25.40;21.20
6672;DHT22;3372;48.690;12.362;2023-06-10T14:18:44;24.90;25.50
6672;DHT22;3372;48.690;12.362;2023-06-10T14:21:09;24.90;24.20
6672;DHT22;3372;48.690;12.362;2023-06-10T14:23:35;24.80;23.90
6672;DHT22;3372;48.690;12.362;2023-06-10T14:26:00;24.50;25.10
6672;DHT22;3372;48.690;12.362;2023-06-10T14:28:28;24.40;25.20
6672;DHT22;3372;48.690;12.362;2023-06-10T14:30:54;24.30;27.10
6672;DHT22;3372;48.690;12.362;2023-06-10T14:33:20;24.40;27.00
6672;DHT22;3372;48.690;12.362;2023-06-10T14:35:45;24.50;27.80
6672;DHT22;3372;48.690;12.362;2023-06-10T14:38:12;24.40;28.40
6672;DHT22;3372;48.690;12.362;2023-06-10T14:40:38;24.50;28.10
6672;DHT22;3372;48.690;12.362;2023-06-10T14:43:03;24.40;27.40
6672;DHT22;3372;48.690;12.362;2023-06-10T14:45:38;24.10;29.60
6672;DHT22;3372;48.690;12.362;2023-06-10T14:48:05;24.00;28.80
6672;DHT22;3372;48.690;12.362;2023-06-10T14:50:31;24.00;33.10
6672;DHT22;3372;48.690;12.362;2023-06-10T14:52:58;24.00;30.90
6672;DHT22;3372;48.690;12.362;2023-06-10T14:55:23;24.10;32.30
6672;DHT22;3372;48.690;12.362;2023-06-10T14:57:49;24.00;32.60
6672;DHT22;3372;48.690;12.362;2023-06-10T15:00:15;23.90;34.00
6672;DHT22;3372;48.690;12.362;2023-06-10T15:02:45;23.90;33.70
6672;DHT22;3372;48.690;12.362;2023-06-10T15:05:13;24.10;34.00
6672;DHT22;3372;48.690;12.362;2023-06-10T15:07:40;24.10;34.40
6672;DHT22;3372;48.690;12.362;2023-06-10T15:10:06;24.10;34.70
6672;DHT22;3372;48.690;12.362;2023-06-10T15:12:32;24.10;35.00
6672;DHT22;3372;48.690;12.362;2023-06-10T15:14:57;24.10;33.90
6672;DHT22;3372;48.690;12.362;2023-06-10T15:17:23;23.90;35.60
6672;DHT22;3372;48.690;12.362;2023-06-10T15:19:48;24.00;33.70
6672;DHT22;3372;48.690;12.362;2023-06-10T15:22:14;23.90;34.60
6672;DHT22;3372;48.690;12.362;2023-06-10T15:24:40;23.90;34.40
6672;DHT22;3372;48.690;12.362;2023-06-10T15:27:05;23.90;33.40
6672;DHT22;3372;48.690;12.362;2023-06-10T15:29:32;23.80;33.80
6672;DHT22;3372;48.690;12.362;2023-06-10T15:31:57;23.90;35.30
6672;DHT22;3372;48.690;12.362;2023-06-10T15:34:23;23.90;35.50
6672;DHT22;3372;48.690;12.362;2023-06-10T15:36:48;23.90;36.70
6672;DHT22;3372;48.690;12.362;2023-06-10T15:39:14;23.90;34.70
6672;DHT22;3372;48.690;12.362;2023-06-10T15:41:40;23.90;35.60
6672;DHT22;3372;48.690;12.362;2023-06-10T15:44:05;24.00;35.80
6672;DHT22;3372;48.690;12.362;2023-06-10T15:46:31;24.00;35.00
6672;DHT22;3372;48.690;12.362;2023-06-10T15:48:57;24.00;34.70
6672;DHT22;3372;48.690;12.362;2023-06-10T15:51:23;24.00;33.60
6672;DHT22;3372;48.690;12.362;2023-06-10T15:53:49;24.00;33.50
6672;DHT22;3372;48.690;12.362;2023-06-10T15:56:15;23.90;35.20
6672;DHT22;3372;48.690;12.362;2023-06-10T15:58:41;23.80;34.10
6672;DHT22;3372;48.690;12.362;2023-06-10T16:01:07;23.90;33.80